createdAt,value
2019-02-14T00:00:05.190Z,958.42
2019-02-14T00:01:13.244Z,958.47
2019-02-14T00:02:21.297Z,958.44
2019-02-14T00:03:29.536Z,958.46
2019-02-14T00:04:37.415Z,958.45
2019-02-14T00:05:45.458Z,958.46
2019-02-14T00:06:53.508Z,958.46
2019-02-14T00:08:01.570Z,958.45
2019-02-14T00:09:09.626Z,958.44
2019-02-14T00:10:17.658Z,958.43
2019-02-14T00:11:25.704Z,958.46
2019-02-14T00:12:33.786Z,958.45
2019-02-14T00:13:41.919Z,958.46
2019-02-14T00:14:49.869Z,958.44
2019-02-14T00:15:57.916Z,958.45
2019-02-14T00:17:05.970Z,958.46
2019-02-14T00:18:14.031Z,958.43
2019-02-14T00:19:22.185Z,958.44
2019-02-14T00:20:30.143Z,958.46
2019-02-14T00:21:38.182Z,958.42
2019-02-14T00:22:46.638Z,958.42
2019-02-14T00:23:54.392Z,958.44
2019-02-14T00:25:02.461Z,958.40
2019-02-14T00:26:10.391Z,958.38
2019-02-14T00:27:18.441Z,958.33
2019-02-14T00:28:26.500Z,958.37
2019-02-14T00:29:34.562Z,958.38
2019-02-14T00:30:42.707Z,958.36
2019-02-14T00:31:50.657Z,958.35
2019-02-14T00:32:58.774Z,958.36
2019-02-14T00:34:06.763Z,958.33
2019-02-14T00:35:14.803Z,958.32
2019-02-14T00:36:22.973Z,958.32
2019-02-14T00:37:30.922Z,958.30
2019-02-14T00:38:39.002Z,958.34
2019-02-14T00:39:47.122Z,958.30
2019-02-14T00:40:55.079Z,958.33
2019-02-14T00:42:03.261Z,958.30
2019-02-14T00:43:11.168Z,958.32
2019-02-14T00:44:19.228Z,958.28
2019-02-14T00:45:27.281Z,958.25
2019-02-14T00:46:35.334Z,958.23
2019-02-14T00:47:43.482Z,958.23
2019-02-14T00:48:51.430Z,958.21
2019-02-14T00:49:59.487Z,958.18
2019-02-14T00:51:07.558Z,958.19
2019-02-14T00:52:15.604Z,958.18
2019-02-14T00:53:23.754Z,958.15
2019-02-14T00:54:31.682Z,958.16
2019-02-14T00:55:39.850Z,958.16
2019-02-14T00:56:47.789Z,958.11
2019-02-14T00:57:55.945Z,958.15
2019-02-14T00:59:03.893Z,958.14
2019-02-14T01:00:11.960Z,958.18
2019-02-14T01:01:20.018Z,958.14
2019-02-14T01:02:28.166Z,958.15
2019-02-14T01:03:36.116Z,958.15
2019-02-14T01:04:44.164Z,958.15
2019-02-14T01:05:52.196Z,958.15
2019-02-14T01:07:00.257Z,958.23
2019-02-14T01:08:08.367Z,958.25
2019-02-14T01:09:16.373Z,958.25
2019-02-14T01:10:24.428Z,958.27
2019-02-14T01:11:32.580Z,958.27
2019-02-14T01:12:40.594Z,958.25
2019-02-14T01:13:48.581Z,958.27
2019-02-14T01:14:56.637Z,958.21
2019-02-14T01:16:04.682Z,958.18
2019-02-14T01:17:12.741Z,958.15
2019-02-14T01:18:20.894Z,958.20
2019-02-14T01:19:28.847Z,958.16
2019-02-14T01:20:36.906Z,958.19
2019-02-14T01:21:44.937Z,958.14
2019-02-14T01:22:53.001Z,958.17
2019-02-14T01:24:01.154Z,958.13
2019-02-14T01:25:09.250Z,958.14
2019-02-14T01:26:17.152Z,958.16
2019-02-14T01:27:25.459Z,958.13
2019-02-14T01:28:33.269Z,958.12
2019-02-14T01:29:41.402Z,958.13
2019-02-14T01:30:49.363Z,958.13
2019-02-14T01:31:57.412Z,958.17
2019-02-14T01:33:05.473Z,958.14
2019-02-14T01:34:13.524Z,958.14
2019-02-14T01:35:21.658Z,958.18
2019-02-14T01:36:29.629Z,958.15
2019-02-14T01:37:37.676Z,958.12
2019-02-14T01:38:45.729Z,958.16
2019-02-14T01:39:53.774Z,958.16
2019-02-14T01:41:01.917Z,958.17
2019-02-14T01:42:09.891Z,958.16
2019-02-14T01:43:18.037Z,958.14
2019-02-14T01:44:25.989Z,958.18
2019-02-14T01:45:34.042Z,958.13
2019-02-14T01:46:42.238Z,958.10
2019-02-14T01:47:50.201Z,958.13
2019-02-14T01:48:58.189Z,958.14
2019-02-14T01:50:06.238Z,958.10
2019-02-14T01:51:14.278Z,958.12
2019-02-14T01:52:22.448Z,958.10
2019-02-14T01:53:30.401Z,958.09
2019-02-14T01:54:38.835Z,958.07
2019-02-14T01:55:46.506Z,958.08
2019-02-14T01:56:54.577Z,958.09
2019-02-14T01:58:02.691Z,958.04
2019-02-14T01:59:10.664Z,958.06
2019-02-14T02:00:18.700Z,958.06
2019-02-14T02:01:26.760Z,958.08
2019-02-14T02:02:34.912Z,958.10
2019-02-14T02:03:42.866Z,958.11
2019-02-14T02:04:50.937Z,958.12
2019-02-14T02:05:58.998Z,958.11
2019-02-14T02:07:07.074Z,958.13
2019-02-14T02:08:15.177Z,958.09
2019-02-14T02:09:23.122Z,958.12
2019-02-14T02:10:31.184Z,958.12
2019-02-14T02:11:39.237Z,958.12
2019-02-14T02:12:47.376Z,958.09
2019-02-14T02:13:55.445Z,958.08
2019-02-14T02:15:03.397Z,958.10
2019-02-14T02:16:11.435Z,958.08
2019-02-14T02:17:19.489Z,958.11
2019-02-14T02:18:27.538Z,958.11
2019-02-14T02:19:35.690Z,958.08
2019-02-14T02:20:43.658Z,958.08
2019-02-14T02:21:51.688Z,958.08
2019-02-14T02:22:59.763Z,958.12
2019-02-14T02:24:07.799Z,958.07
2019-02-14T02:25:16.300Z,958.13
2019-02-14T02:26:23.911Z,958.10
2019-02-14T02:27:32.041Z,958.12
2019-02-14T02:28:40.010Z,958.15
2019-02-14T02:29:48.067Z,958.17
2019-02-14T02:30:56.200Z,958.20
2019-02-14T02:32:04.166Z,958.15
2019-02-14T02:33:12.191Z,958.14
2019-02-14T02:34:20.282Z,958.17
2019-02-14T02:35:28.326Z,958.13
2019-02-14T02:36:36.471Z,958.16
2019-02-14T02:37:44.422Z,958.12
2019-02-14T02:38:52.480Z,958.14
2019-02-14T02:40:00.526Z,958.11
2019-02-14T02:41:08.608Z,958.12
2019-02-14T02:42:16.745Z,958.10
2019-02-14T02:43:24.776Z,958.15
2019-02-14T02:44:32.743Z,958.12
2019-02-14T02:45:40.799Z,958.13
2019-02-14T02:46:48.864Z,958.16
2019-02-14T02:47:57.007Z,958.17
2019-02-14T02:49:04.979Z,958.13
2019-02-14T02:50:13.013Z,958.14
2019-02-14T02:51:21.094Z,958.14
2019-02-14T02:52:29.206Z,958.09
2019-02-14T02:53:37.164Z,958.12
2019-02-14T02:54:45.204Z,958.09
2019-02-14T02:55:53.264Z,958.11
2019-02-14T02:57:01.299Z,958.09
2019-02-14T02:58:09.454Z,958.09
2019-02-14T02:59:17.450Z,958.08
2019-02-14T03:00:25.458Z,958.12
2019-02-14T03:01:33.510Z,958.07
2019-02-14T03:02:41.544Z,958.07
2019-02-14T03:03:49.864Z,958.10
2019-02-14T03:04:57.667Z,958.07
2019-02-14T03:06:10.374Z,958.09
2019-02-14T03:07:13.780Z,958.10
2019-02-14T03:08:21.812Z,958.09
2019-02-14T03:09:29.991Z,958.09
2019-02-14T03:10:37.921Z,958.12
2019-02-14T03:11:45.963Z,958.15
2019-02-14T03:12:54.133Z,958.13
2019-02-14T03:14:02.046Z,958.12
2019-02-14T03:15:10.253Z,958.15
2019-02-14T03:16:18.194Z,958.14
2019-02-14T03:17:26.230Z,958.11
2019-02-14T03:18:34.291Z,958.10
2019-02-14T03:19:42.344Z,958.08
2019-02-14T03:20:50.493Z,958.11
2019-02-14T03:21:58.443Z,958.10
2019-02-14T03:23:06.490Z,958.10
2019-02-14T03:24:14.530Z,958.09
2019-02-14T03:25:22.595Z,958.12
2019-02-14T03:26:30.751Z,958.09
2019-02-14T03:27:38.807Z,958.10
2019-02-14T03:28:46.765Z,958.11
2019-02-14T03:29:54.795Z,958.08
2019-02-14T03:31:02.846Z,958.08
2019-02-14T03:32:10.997Z,958.12
2019-02-14T03:33:18.955Z,958.15
2019-02-14T03:34:26.998Z,958.16
2019-02-14T03:35:35.059Z,958.14
2019-02-14T03:36:43.110Z,958.16
2019-02-14T03:37:51.249Z,958.16
2019-02-14T03:38:59.225Z,958.18
2019-02-14T03:40:07.279Z,958.17
2019-02-14T03:41:15.312Z,958.22
2019-02-14T03:42:23.352Z,958.21
2019-02-14T03:43:31.525Z,958.16
2019-02-14T03:44:39.476Z,958.20
2019-02-14T03:45:47.656Z,958.20
2019-02-14T03:46:55.587Z,958.16
2019-02-14T03:48:03.908Z,958.20
2019-02-14T03:49:11.677Z,958.25
2019-02-14T03:50:19.737Z,958.19
2019-02-14T03:51:27.783Z,958.23
2019-02-14T03:52:35.966Z,958.23
2019-02-14T03:53:43.874Z,958.25
2019-02-14T03:54:51.933Z,958.25
2019-02-14T03:55:59.997Z,958.22
2019-02-14T03:57:08.032Z,958.24
2019-02-14T03:58:16.196Z,958.22
2019-02-14T03:59:24.225Z,958.25
2019-02-14T04:00:32.182Z,958.20
2019-02-14T04:01:40.240Z,958.24
2019-02-14T04:02:48.324Z,958.24
2019-02-14T04:03:56.441Z,958.29
2019-02-14T04:05:04.385Z,958.27
2019-02-14T04:06:12.451Z,958.26
2019-02-14T04:07:20.498Z,958.26
2019-02-14T04:08:28.551Z,958.26
2019-02-14T04:09:36.702Z,958.31
2019-02-14T04:10:44.654Z,958.30
2019-02-14T04:11:52.706Z,958.30
2019-02-14T04:13:00.747Z,958.29
2019-02-14T04:14:08.800Z,958.32
2019-02-14T04:15:16.959Z,958.27
2019-02-14T04:16:24.890Z,958.25
2019-02-14T04:17:32.969Z,958.23
2019-02-14T04:18:41.020Z,958.27
2019-02-14T04:19:49.075Z,958.25
2019-02-14T04:20:57.180Z,958.24
2019-02-14T04:22:05.157Z,958.23
2019-02-14T04:23:13.228Z,958.29
2019-02-14T04:24:21.262Z,958.32
2019-02-14T04:25:29.327Z,958.31
2019-02-14T04:26:37.474Z,958.36
2019-02-14T04:27:45.418Z,958.37
2019-02-14T04:28:53.468Z,958.40
2019-02-14T04:30:01.522Z,958.36
2019-02-14T04:31:09.674Z,958.40
2019-02-14T04:32:17.716Z,958.41
2019-02-14T04:33:25.682Z,958.38
2019-02-14T04:34:33.716Z,958.35
2019-02-14T04:35:41.775Z,958.35
2019-02-14T04:36:49.823Z,958.38
2019-02-14T04:37:57.978Z,958.36
2019-02-14T04:39:05.941Z,958.32
2019-02-14T04:40:13.990Z,958.35
2019-02-14T04:41:22.040Z,958.33
2019-02-14T04:42:30.169Z,958.35
2019-02-14T04:43:38.137Z,958.35
2019-02-14T04:44:46.198Z,958.32
2019-02-14T04:45:54.242Z,958.33
2019-02-14T04:47:02.267Z,958.30
2019-02-14T04:48:10.450Z,958.30
2019-02-14T04:49:18.395Z,958.33
2019-02-14T04:50:26.451Z,958.35
2019-02-14T04:51:34.505Z,958.34
2019-02-14T04:52:42.649Z,958.34
2019-02-14T04:53:50.602Z,958.37
2019-02-14T04:54:58.648Z,958.37
2019-02-14T04:56:06.705Z,958.37
2019-02-14T04:57:14.748Z,958.35
2019-02-14T04:58:22.899Z,958.34
2019-02-14T04:59:30.854Z,958.35
2019-02-14T05:00:38.915Z,958.33
2019-02-14T05:01:47.073Z,958.30
2019-02-14T05:02:55.019Z,958.30
2019-02-14T05:04:03.143Z,958.31
2019-02-14T05:05:11.123Z,958.31
2019-02-14T05:06:19.169Z,958.31
2019-02-14T05:07:27.193Z,958.29
2019-02-14T05:08:35.266Z,958.28
2019-02-14T05:09:43.410Z,958.35
2019-02-14T05:10:51.351Z,958.32
2019-02-14T05:11:59.424Z,958.32
2019-02-14T05:13:07.479Z,958.31
2019-02-14T05:14:15.508Z,958.30
2019-02-14T05:15:23.651Z,958.29
2019-02-14T05:16:31.619Z,958.27
2019-02-14T05:17:39.780Z,958.22
2019-02-14T05:18:47.728Z,958.19
2019-02-14T05:19:55.794Z,958.22
2019-02-14T05:21:03.907Z,958.21
2019-02-14T05:22:11.863Z,958.14
2019-02-14T05:23:19.947Z,958.16
2019-02-14T05:24:28.008Z,958.17
2019-02-14T05:25:36.063Z,958.17
2019-02-14T05:26:44.186Z,958.15
2019-02-14T05:27:52.116Z,958.17
2019-02-14T05:29:00.185Z,958.18
2019-02-14T05:30:08.237Z,958.13
2019-02-14T05:31:16.292Z,958.21
2019-02-14T05:32:24.415Z,958.21
2019-02-14T05:33:32.384Z,958.21
2019-02-14T05:34:40.437Z,958.20
2019-02-14T05:35:48.485Z,958.21
2019-02-14T05:36:56.550Z,958.19
2019-02-14T05:38:04.642Z,958.16
2019-02-14T05:39:12.651Z,958.18
2019-02-14T05:40:20.691Z,958.15
2019-02-14T05:41:28.742Z,958.17
2019-02-14T05:42:36.898Z,958.16
2019-02-14T05:43:44.843Z,958.15
2019-02-14T05:44:52.899Z,958.13
2019-02-14T05:46:00.934Z,958.12
2019-02-14T05:47:09.008Z,958.13
2019-02-14T05:48:17.109Z,958.11
2019-02-14T05:49:25.176Z,958.13
2019-02-14T05:50:33.158Z,958.13
2019-02-14T05:51:41.217Z,958.16
2019-02-14T05:52:49.261Z,958.11
2019-02-14T05:53:57.419Z,958.14
2019-02-14T05:55:05.359Z,958.14
2019-02-14T05:56:13.454Z,958.16
2019-02-14T05:57:21.460Z,958.17
2019-02-14T05:58:29.532Z,958.16
2019-02-14T05:59:37.670Z,958.18
2019-02-14T06:00:45.623Z,958.17
2019-02-14T06:01:53.713Z,958.19
2019-02-14T06:03:01.782Z,958.19
2019-02-14T06:04:09.797Z,958.21
2019-02-14T06:05:17.943Z,958.25
2019-02-14T06:06:25.874Z,958.22
2019-02-14T06:07:33.956Z,958.23
2019-02-14T06:08:41.974Z,958.26
2019-02-14T06:09:50.018Z,958.24
2019-02-14T06:10:58.542Z,958.23
2019-02-14T06:12:06.133Z,958.22
2019-02-14T06:13:14.176Z,958.24
2019-02-14T06:14:22.204Z,958.28
2019-02-14T06:15:30.885Z,958.29
2019-02-14T06:16:38.403Z,958.31
2019-02-14T06:17:46.480Z,958.32
2019-02-14T06:18:54.438Z,958.34
2019-02-14T06:20:02.464Z,958.34
2019-02-14T06:21:10.527Z,958.31
2019-02-14T06:22:18.686Z,958.32
2019-02-14T06:23:26.621Z,958.33
2019-02-14T06:24:35.718Z,958.32
2019-02-14T06:25:43.977Z,958.35
2019-02-14T06:26:53.253Z,958.33
2019-02-14T06:28:00.932Z,958.35
2019-02-14T06:29:08.919Z,958.31
2019-02-14T06:30:18.406Z,958.34
2019-02-14T06:31:25.981Z,958.32
2019-02-14T06:32:34.095Z,958.36
2019-02-14T06:33:42.088Z,958.38
2019-02-14T06:34:51.155Z,958.41
2019-02-14T06:35:59.201Z,958.41
2019-02-14T06:37:09.574Z,958.44
2019-02-14T06:38:16.399Z,958.46
2019-02-14T06:39:24.426Z,958.44
2019-02-14T06:40:33.534Z,958.47
2019-02-14T06:41:41.612Z,958.46
2019-02-14T06:42:49.596Z,958.47
2019-02-14T06:43:58.070Z,958.47
2019-02-14T06:45:05.598Z,958.48
2019-02-14T06:46:13.661Z,958.50
2019-02-14T06:47:21.683Z,958.52
2019-02-14T06:48:29.890Z,958.54
2019-02-14T06:49:37.848Z,958.57
2019-02-14T06:50:45.859Z,958.56
2019-02-14T06:51:53.919Z,958.59
2019-02-14T06:53:02.471Z,958.58
2019-02-14T06:54:10.117Z,958.59
2019-02-14T06:55:18.073Z,958.55
2019-02-14T06:56:26.268Z,958.54
2019-02-14T06:57:34.183Z,958.58
2019-02-14T06:58:42.329Z,958.56
2019-02-14T06:59:50.281Z,958.54
2019-02-14T07:00:58.316Z,958.56
2019-02-14T07:02:06.366Z,958.58
2019-02-14T07:03:14.715Z,958.60
2019-02-14T07:04:22.552Z,958.63
2019-02-14T07:05:30.537Z,958.66
2019-02-14T07:06:38.569Z,958.67
2019-02-14T07:07:46.604Z,958.66
2019-02-14T07:08:54.698Z,958.68
2019-02-14T07:10:02.810Z,958.67
2019-02-14T07:11:10.779Z,958.73
2019-02-14T07:12:18.816Z,958.75
2019-02-14T07:13:26.887Z,958.75
2019-02-14T07:14:34.925Z,958.76
2019-02-14T07:15:43.075Z,958.80
2019-02-14T07:16:51.019Z,958.83
2019-02-14T07:17:59.090Z,958.84
2019-02-14T07:19:07.221Z,958.86
2019-02-14T07:20:15.189Z,958.87
2019-02-14T07:21:23.327Z,958.84
2019-02-14T07:22:31.269Z,958.85
2019-02-14T07:23:39.341Z,958.88
2019-02-14T07:24:47.402Z,958.90
2019-02-14T07:25:55.440Z,958.95
2019-02-14T07:27:03.581Z,958.95
2019-02-14T07:28:11.545Z,958.98
2019-02-14T07:29:19.587Z,959.01
2019-02-14T07:30:27.688Z,959.00
2019-02-14T07:31:35.728Z,959.03
2019-02-14T07:32:43.851Z,959.07
2019-02-14T07:33:51.785Z,959.04
2019-02-14T07:34:59.961Z,959.06
2019-02-14T07:36:07.955Z,959.08
2019-02-14T07:37:15.989Z,959.10
2019-02-14T07:38:24.114Z,959.15
2019-02-14T07:39:32.033Z,959.15
2019-02-14T07:40:40.109Z,959.19
2019-02-14T07:41:48.189Z,959.21
2019-02-14T07:42:56.523Z,959.23
2019-02-14T07:44:04.292Z,959.16
2019-02-14T07:45:12.314Z,959.14
2019-02-14T07:46:22.632Z,959.14
2019-02-14T07:47:28.488Z,959.16
2019-02-14T07:48:36.483Z,959.10
2019-02-14T07:49:44.677Z,959.16
2019-02-14T07:50:52.584Z,959.17
2019-02-14T07:52:00.638Z,959.20
2019-02-14T07:53:08.782Z,959.20
2019-02-14T07:54:17.195Z,959.19
2019-02-14T07:55:25.315Z,959.24
2019-02-14T07:56:32.827Z,959.25
2019-02-14T07:57:41.281Z,959.25
2019-02-14T07:58:49.316Z,959.26
2019-02-14T07:59:57.153Z,959.25
2019-02-14T08:01:05.062Z,959.22
2019-02-14T08:02:13.102Z,959.22
2019-02-14T08:03:21.157Z,959.25
2019-02-14T08:04:29.392Z,959.28
2019-02-14T08:05:37.631Z,959.30
2019-02-14T08:06:45.831Z,959.28
2019-02-14T08:07:53.358Z,959.31
2019-02-14T08:09:01.885Z,959.28
2019-02-14T08:10:09.602Z,959.31
2019-02-14T08:11:17.880Z,959.26
2019-02-14T08:12:25.573Z,959.28
2019-02-14T08:13:34.995Z,959.30
2019-02-14T08:14:41.712Z,959.26
2019-02-14T08:15:49.998Z,959.25
2019-02-14T08:16:57.837Z,959.26
2019-02-14T08:18:05.841Z,959.25
2019-02-14T08:19:13.910Z,959.27
2019-02-14T08:20:21.918Z,959.22
2019-02-14T08:21:30.095Z,959.25
2019-02-14T08:22:38.133Z,959.23
2019-02-14T08:23:46.099Z,959.23
2019-02-14T08:24:54.461Z,959.22
2019-02-14T08:26:10.303Z,959.19
2019-02-14T08:27:10.620Z,959.23
2019-02-14T08:28:18.294Z,959.28
2019-02-14T08:29:26.396Z,959.26
2019-02-14T08:30:34.772Z,959.29
2019-02-14T08:31:42.471Z,959.33
2019-02-14T08:32:50.619Z,959.32
2019-02-14T08:33:58.567Z,959.31
2019-02-14T08:35:06.990Z,959.35
2019-02-14T08:36:14.716Z,959.35
2019-02-14T08:37:22.827Z,959.37
2019-02-14T08:38:30.794Z,959.36
2019-02-14T08:39:38.888Z,959.35
2019-02-14T08:40:46.891Z,959.38
2019-02-14T08:41:54.945Z,959.35
2019-02-14T08:43:03.094Z,959.36
2019-02-14T08:44:11.285Z,959.33
2019-02-14T08:45:19.133Z,959.29
2019-02-14T08:46:27.198Z,959.28
2019-02-14T08:47:35.263Z,959.30
2019-02-14T08:48:43.364Z,959.30
2019-02-14T08:49:51.373Z,959.30
2019-02-14T08:50:59.390Z,959.29
2019-02-14T08:52:07.422Z,959.30
2019-02-14T08:53:15.581Z,959.32
2019-02-14T08:54:23.632Z,959.33
2019-02-14T08:55:31.594Z,959.32
2019-02-14T08:56:39.656Z,959.31
2019-02-14T08:57:47.704Z,959.30
2019-02-14T08:58:55.751Z,959.31
2019-02-14T09:00:03.899Z,959.30
2019-02-14T09:01:11.865Z,959.28
2019-02-14T09:02:19.929Z,959.31
2019-02-14T09:03:27.985Z,959.34
2019-02-14T09:04:36.020Z,959.36
2019-02-14T09:05:44.202Z,959.41
2019-02-14T09:06:52.160Z,959.42
2019-02-14T09:08:00.838Z,959.39
2019-02-14T09:09:08.281Z,959.39
2019-02-14T09:10:16.356Z,959.39
2019-02-14T09:11:24.453Z,959.39
2019-02-14T09:12:32.413Z,959.38
2019-02-14T09:13:40.465Z,959.42
2019-02-14T09:14:48.530Z,959.49
2019-02-14T09:15:56.603Z,959.44
2019-02-14T09:17:04.725Z,959.48
2019-02-14T09:18:12.691Z,959.48
2019-02-14T09:19:20.738Z,959.48
2019-02-14T09:20:28.806Z,959.50
2019-02-14T09:21:36.850Z,959.50
2019-02-14T09:22:45.007Z,959.51
2019-02-14T09:23:52.954Z,959.51
2019-02-14T09:25:01.007Z,959.50
2019-02-14T09:26:09.106Z,959.49
2019-02-14T09:27:17.147Z,959.53
2019-02-14T09:28:25.282Z,959.50
2019-02-14T09:29:33.257Z,959.45
2019-02-14T09:30:41.282Z,959.44
2019-02-14T09:31:49.383Z,959.44
2019-02-14T09:32:57.393Z,959.45
2019-02-14T09:34:05.566Z,959.46
2019-02-14T09:35:13.541Z,959.48
2019-02-14T09:36:21.659Z,959.47
2019-02-14T09:37:29.845Z,959.49
2019-02-14T09:38:37.709Z,959.50
2019-02-14T09:39:45.844Z,959.48
2019-02-14T09:40:53.902Z,959.48
2019-02-14T09:42:01.990Z,959.49
2019-02-14T09:43:09.922Z,959.46
2019-02-14T09:44:18.479Z,959.49
2019-02-14T09:45:26.656Z,959.51
2019-02-14T09:46:34.090Z,959.50
2019-02-14T09:47:42.332Z,959.47
2019-02-14T09:48:50.210Z,959.48
2019-02-14T09:49:58.256Z,959.52
2019-02-14T09:51:06.456Z,959.50
2019-02-14T09:52:14.375Z,959.51
2019-02-14T09:53:22.671Z,959.56
2019-02-14T09:54:30.877Z,959.52
2019-02-14T09:55:38.534Z,959.56
2019-02-14T09:56:46.783Z,959.59
2019-02-14T09:57:54.880Z,959.59
2019-02-14T09:59:02.687Z,959.57
2019-02-14T10:00:10.882Z,959.55
2019-02-14T10:01:18.841Z,959.55
2019-02-14T10:02:27.007Z,959.53
2019-02-14T10:03:34.927Z,959.57
2019-02-14T10:04:42.994Z,959.58
2019-02-14T10:05:51.053Z,959.54
2019-02-14T10:06:59.103Z,959.57
2019-02-14T10:08:12.621Z,959.56
2019-02-14T10:09:15.398Z,959.49
2019-02-14T10:10:23.828Z,959.52
2019-02-14T10:11:31.437Z,959.53
2019-02-14T10:12:39.476Z,959.52
2019-02-14T10:13:47.431Z,959.49
2019-02-14T10:14:55.484Z,959.51
2019-02-14T10:16:03.529Z,959.54
2019-02-14T10:17:12.261Z,959.56
2019-02-14T10:18:19.705Z,959.58
2019-02-14T10:19:28.711Z,959.54
2019-02-14T10:20:36.430Z,959.54
2019-02-14T10:21:44.138Z,959.51
2019-02-14T10:22:52.146Z,959.48
2019-02-14T10:24:00.297Z,959.51
2019-02-14T10:25:08.049Z,959.51
2019-02-14T10:26:16.876Z,959.47
2019-02-14T10:27:24.110Z,959.48
2019-02-14T10:28:32.355Z,959.50
2019-02-14T10:29:40.403Z,959.52
2019-02-14T10:30:48.275Z,959.55
2019-02-14T10:31:56.349Z,959.56
2019-02-14T10:33:04.388Z,959.55
2019-02-14T10:34:12.572Z,959.54
2019-02-14T10:35:20.550Z,959.56
2019-02-14T10:36:28.565Z,959.56
2019-02-14T10:37:36.643Z,959.52
2019-02-14T10:38:44.779Z,959.52
2019-02-14T10:39:53.100Z,959.53
2019-02-14T10:41:00.976Z,959.52
2019-02-14T10:42:08.870Z,959.49
2019-02-14T10:43:16.928Z,959.52
2019-02-14T10:44:24.976Z,959.52
2019-02-14T10:45:33.321Z,959.49
2019-02-14T10:46:41.139Z,959.45
2019-02-14T10:47:49.572Z,959.44
2019-02-14T10:48:57.196Z,959.44
2019-02-14T10:50:05.261Z,959.46
2019-02-14T10:51:13.418Z,959.43
2019-02-14T10:52:21.438Z,959.42
2019-02-14T10:53:29.432Z,959.42
2019-02-14T10:54:37.562Z,959.39
2019-02-14T10:55:45.662Z,959.31
2019-02-14T10:56:53.716Z,959.31
2019-02-14T10:58:01.638Z,959.26
2019-02-14T10:59:09.737Z,959.26
2019-02-14T11:00:17.792Z,959.25
2019-02-14T11:01:25.844Z,959.21
2019-02-14T11:02:33.986Z,959.23
2019-02-14T11:03:41.969Z,959.23
2019-02-14T11:04:50.041Z,959.23
2019-02-14T11:05:58.081Z,959.21
2019-02-14T11:07:06.147Z,959.20
2019-02-14T11:08:14.293Z,959.18
2019-02-14T11:09:22.253Z,959.19
2019-02-14T11:10:30.300Z,959.20
2019-02-14T11:11:38.494Z,959.20
2019-02-14T11:12:46.522Z,959.18
2019-02-14T11:13:54.493Z,959.19
2019-02-14T11:15:02.691Z,959.18
2019-02-14T11:16:10.641Z,959.15
2019-02-14T11:17:18.707Z,959.17
2019-02-14T11:18:26.799Z,959.12
2019-02-14T11:19:34.771Z,959.13
2019-02-14T11:20:43.356Z,959.15
2019-02-14T11:21:51.112Z,959.16
2019-02-14T11:22:58.961Z,959.17
2019-02-14T11:24:07.186Z,959.17
2019-02-14T11:25:15.146Z,959.15
2019-02-14T11:26:23.121Z,959.11
2019-02-14T11:27:31.288Z,959.10
2019-02-14T11:28:39.280Z,959.07
2019-02-14T11:29:47.442Z,959.05
2019-02-14T11:30:55.438Z,959.02
2019-02-14T11:32:03.655Z,958.96
2019-02-14T11:33:11.495Z,958.88
2019-02-14T11:34:19.543Z,958.89
2019-02-14T11:35:27.673Z,958.88
2019-02-14T11:36:35.655Z,958.81
2019-02-14T11:37:43.713Z,958.86
2019-02-14T11:38:53.431Z,958.80
2019-02-14T11:39:59.846Z,958.83
2019-02-14T11:41:07.999Z,958.83
2019-02-14T11:42:15.972Z,958.84
2019-02-14T11:43:24.108Z,958.77
2019-02-14T11:44:39.528Z,958.84
2019-02-14T11:45:40.242Z,958.82
2019-02-14T11:46:51.418Z,958.84
2019-02-14T11:47:56.274Z,958.85
2019-02-14T11:49:04.307Z,958.82
2019-02-14T11:50:12.399Z,958.85
2019-02-14T11:51:20.495Z,958.84
2019-02-14T11:52:28.773Z,958.88
2019-02-14T11:53:36.564Z,958.89
2019-02-14T11:54:44.609Z,958.89
2019-02-14T11:55:54.119Z,958.88
2019-02-14T11:57:00.731Z,958.85
2019-02-14T11:58:08.905Z,958.83
2019-02-14T11:59:16.954Z,958.81
2019-02-14T12:00:24.912Z,958.82
2019-02-14T12:01:33.056Z,958.79
2019-02-14T12:02:41.151Z,958.80
2019-02-14T12:03:49.208Z,958.78
2019-02-14T12:04:57.173Z,958.76
2019-02-14T12:06:05.250Z,958.81
2019-02-14T12:07:13.280Z,958.83
2019-02-14T12:08:21.373Z,958.78
2019-02-14T12:09:29.666Z,958.78
2019-02-14T12:10:37.452Z,958.74
2019-02-14T12:11:45.529Z,958.74
2019-02-14T12:12:53.663Z,958.70
2019-02-14T12:14:01.631Z,958.70
2019-02-14T12:15:09.790Z,958.68
2019-02-14T12:16:17.744Z,958.69
2019-02-14T12:17:25.801Z,958.72
2019-02-14T12:18:33.977Z,958.71
2019-02-14T12:19:41.913Z,958.72
2019-02-14T12:20:49.992Z,958.68
2019-02-14T12:21:58.075Z,958.63
2019-02-14T12:23:06.085Z,958.64
2019-02-14T12:24:14.254Z,958.61
2019-02-14T12:25:22.211Z,958.66
2019-02-14T12:26:30.282Z,958.61
2019-02-14T12:27:38.339Z,958.61
2019-02-14T12:28:46.409Z,958.59
2019-02-14T12:29:54.565Z,958.55
2019-02-14T12:31:02.601Z,958.52
2019-02-14T12:32:11.355Z,958.52
2019-02-14T12:33:18.630Z,958.48
2019-02-14T12:34:26.698Z,958.50
2019-02-14T12:35:34.847Z,958.45
2019-02-14T12:36:42.803Z,958.47
2019-02-14T12:37:50.881Z,958.46
2019-02-14T12:38:58.921Z,958.47
2019-02-14T12:40:07.005Z,958.44
2019-02-14T12:41:15.158Z,958.48
2019-02-14T12:42:23.144Z,958.52
2019-02-14T12:43:31.194Z,958.48
2019-02-14T12:44:39.244Z,958.52
2019-02-14T12:45:47.307Z,958.53
2019-02-14T12:46:55.469Z,958.49
2019-02-14T12:48:03.412Z,958.51
2019-02-14T12:49:11.483Z,958.48
2019-02-14T12:50:19.536Z,958.51
2019-02-14T12:51:27.621Z,958.49
2019-02-14T12:52:35.763Z,958.50
2019-02-14T12:53:43.760Z,958.47
2019-02-14T12:54:51.779Z,958.48
2019-02-14T12:55:59.858Z,958.47
2019-02-14T12:57:07.910Z,958.47
2019-02-14T12:58:16.047Z,958.48
2019-02-14T12:59:24.007Z,958.49
2019-02-14T13:00:32.075Z,958.46
2019-02-14T13:01:40.160Z,958.48
2019-02-14T13:02:48.305Z,958.49
2019-02-14T13:03:56.294Z,958.45
2019-02-14T13:05:04.310Z,958.46
2019-02-14T13:06:12.380Z,958.46
2019-02-14T13:07:20.524Z,958.43
2019-02-14T13:08:28.499Z,958.44
2019-02-14T13:09:36.567Z,958.40
2019-02-14T13:10:44.617Z,958.40
2019-02-14T13:11:52.691Z,958.34
2019-02-14T13:13:00.832Z,958.33
2019-02-14T13:14:08.845Z,958.35
2019-02-14T13:15:16.876Z,958.33
2019-02-14T13:16:24.923Z,958.32
2019-02-14T13:17:33.089Z,958.29
2019-02-14T13:18:41.155Z,958.28
2019-02-14T13:19:49.110Z,958.31
2019-02-14T13:20:57.158Z,958.30
2019-02-14T13:22:05.238Z,958.29
2019-02-14T13:23:13.277Z,958.27
2019-02-14T13:24:21.465Z,958.29
2019-02-14T13:25:29.407Z,958.25
2019-02-14T13:26:37.461Z,958.23
2019-02-14T13:27:45.526Z,958.18
2019-02-14T13:28:53.586Z,958.17
2019-02-14T13:30:01.746Z,958.18
2019-02-14T13:31:09.720Z,958.16
2019-02-14T13:32:17.775Z,958.14
2019-02-14T13:33:25.893Z,958.11
2019-02-14T13:34:33.906Z,958.11
2019-02-14T13:35:42.070Z,958.11
2019-02-14T13:36:50.015Z,958.11
2019-02-14T13:37:58.066Z,958.06
2019-02-14T13:39:06.137Z,958.06
2019-02-14T13:40:14.197Z,958.04
2019-02-14T13:41:30.860Z,958.00
2019-02-14T13:42:30.314Z,958.00
2019-02-14T13:43:38.389Z,958.00
2019-02-14T13:44:46.430Z,957.96
2019-02-14T13:45:54.545Z,957.91
2019-02-14T13:47:02.634Z,957.92
2019-02-14T13:48:10.624Z,957.90
2019-02-14T13:49:18.797Z,957.88
2019-02-14T13:50:26.721Z,957.91
2019-02-14T13:51:34.804Z,957.91
2019-02-14T13:52:42.899Z,957.91
2019-02-14T13:53:51.162Z,957.92
2019-02-14T13:54:58.976Z,957.94
2019-02-14T13:56:07.058Z,957.90
2019-02-14T13:57:15.090Z,957.93
2019-02-14T13:58:23.328Z,957.94
2019-02-14T13:59:32.079Z,957.97
2019-02-14T14:00:39.303Z,957.99
2019-02-14T14:01:47.367Z,957.99
2019-02-14T14:02:55.550Z,958.00
2019-02-14T14:04:03.486Z,957.98
2019-02-14T14:05:11.632Z,957.97
2019-02-14T14:06:19.609Z,957.99
2019-02-14T14:07:27.923Z,957.96
2019-02-14T14:08:35.843Z,957.98